Time;durP1;ratioP1;P1;durP2;ratioP2;P2;SDS_P1;SDS_P2;PMS_P1;PMS_P2;Temp;Humidity;BMP_temperature;BMP_pressure;BME280_temperature;BME280_humidity;BME280_pressure;Samples;Min_cycle;Max_cycle;Signal;HPM_P1;HPM_P2
2022/01/28 00:00:08;;;;;;;8.82;1.83;;;;;;;4.18;72.74;100943.16;7398862;19;20023;-68
2022/01/28 00:05:21;;;;;;;10.75;1.80;;;;;;;4.19;73.86;100965.66;7397815;19;20355;-67
2022/01/28 00:07:50;;;;;;;8.40;2.42;;;;;;;4.17;72.23;100976.88;7399681;19;20051;-67
2022/01/28 00:10:22;;;;;;;8.82;1.63;;;;;;;4.19;73.15;100970.84;7400669;19;20014;-67
2022/01/28 00:15:41;;;;;;;10.13;2.60;;;;;;;4.16;73.42;100993.34;7397048;19;20015;-68
2022/01/28 00:36:25;;;;;;;15.63;1.98;;;;;;;4.18;72.77;100987.31;7400792;19;20090;-67
2022/01/28 00:37:26;;;;;;;13.32;1.85;;;;;;;4.12;73.72;100958.69;7396906;19;20025;-68
2022/01/28 00:39:54;;;;;;;10.95;1.83;;;;;;;4.10;73.72;100977.72;7397618;19;20014;-67
2022/01/28 00:42:25;;;;;;;12.57;2.50;;;;;;;4.06;73.95;101003.63;7397446;19;20044;-67
2022/01/28 00:44:53;;;;;;;11.05;2.28;;;;;;;4.05;74.17;100993.25;7399226;19;20362;-67
2022/01/28 00:47:21;;;;;;;12.65;2.03;;;;;;;4.03;73.84;100995.84;7398600;19;20015;-68
2022/01/28 00:49:49;;;;;;;10.07;1.88;;;;;;;4.03;73.92;100984.56;7399358;19;20022;-67
2022/01/28 00:52:17;;;;;;;12.65;1.98;;;;;;;4.02;73.36;101029.53;7399527;19;20014;-67
2022/01/28 00:54:45;;;;;;;8.27;2.00;;;;;;;4.03;73.93;101036.47;7399445;19;20015;-67
2022/01/28 00:57:13;;;;;;;11.23;1.88;;;;;;;4.03;74.07;101007.94;7397033;19;20031;-68
2022/01/28 00:59:44;;;;;;;13.02;2.17;;;;;;;4.03;74.93;101005.31;7398766;19;20499;-67
2022/01/28 01:02:12;;;;;;;9.82;2.10;;;;;;;4.02;73.88;101017.44;7399657;19;20018;-67
2022/01/28 01:04:41;;;;;;;9.82;1.70;;;;;;;4.01;74.58;101026.09;7396609;19;20483;-67
2022/01/28 01:07:09;;;;;;;11.60;2.20;;;;;;;4.03;76.37;101016.59;7396737;19;20023;-67
2022/01/28 01:09:37;;;;;;;14.82;2.25;;;;;;;4.02;74.90;101021.75;7398358;19;20028;-67
2022/01/28 01:12:07;;;;;;;14.13;2.78;;;;;;;4.00;76.21;101023.50;7398756;19;20018;-67
2022/01/28 01:14:35;;;;;;;12.73;2.17;;;;;;;3.98;74.87;101022.59;7398799;19;20014;-68
2022/01/28 01:17:19;;;;;;;12.02;2.03;;;;;;;3.94;74.84;101047.66;7397646;19;20374;-67
2022/01/28 01:19:52;;;;;;;9.40;1.77;;;;;;;3.94;77.09;101034.66;7398997;19;20022;-68
2022/01/28 01:22:20;;;;;;;9.93;1.92;;;;;;;3.93;76.31;101025.16;7396876;19;20037;-68
2022/01/28 01:24:59;;;;;;;14.43;2.00;;;;;;;3.85;74.48;101037.19;7396205;19;20018;-67
2022/01/28 01:27:28;;;;;;;11.25;2.00;;;;;;;3.87;75.37;101023.34;7397584;19;20029;-68
2022/01/28 01:29:57;;;;;;;11.02;1.95;;;;;;;3.83;74.87;101047.56;7396547;19;20018;-68
2022/01/28 01:32:27;;;;;;;7.60;2.03;;;;;;;3.82;75.53;101034.56;7396238;19;20010;-68
2022/01/28 01:34:55;;;;;;;12.07;2.22;;;;;;;3.80;75.30;101047.50;7399178;19;20018;-67
2022/01/28 01:37:30;;;;;;;16.20;3.08;;;;;;;3.80;74.89;101044.03;7396914;19;20022;-67
2022/01/28 01:39:59;;;;;;;17.80;2.33;;;;;;;3.82;75.92;101044.94;7397624;19;20018;-68
2022/01/28 01:42:34;;;;;;;10.43;1.70;;;;;;;3.83;75.58;101044.06;7397604;19;20025;-67
2022/01/28 01:53:32;;;;;;;11.27;1.90;;;;;;;3.92;74.05;101098.69;7397875;19;20014;-67
2022/01/28 01:56:00;;;;;;;11.00;2.05;;;;;;;3.95;73.71;101043.34;7395436;19;20018;-68
2022/01/28 01:58:31;;;;;;;10.80;2.15;;;;;;;3.96;73.76;101064.13;7397030;19;20475;-68
2022/01/28 02:01:00;;;;;;;9.90;1.60;;;;;;;3.97;73.36;101084.03;7397201;19;20018;-67
2022/01/28 02:03:32;;;;;;;18.83;2.45;;;;;;;3.98;73.15;101082.31;7397106;19;20028;-67
2022/01/28 02:06:01;;;;;;;12.00;2.17;;;;;;;3.96;74.13;101047.69;7395408;19;20018;-68
2022/01/28 02:08:32;;;;;;;12.77;1.52;;;;;;;3.93;74.28;101087.47;7395611;19;20021;-72
2022/01/28 02:11:01;;;;;;;10.40;1.60;;;;;;;3.89;75.03;101090.84;7397159;19;20022;-68
2022/01/28 02:13:31;;;;;;;13.52;2.65;;;;;;;3.85;76.45;101117.63;7398333;19;20014;-68
2022/01/28 02:16:01;;;;;;;11.68;1.48;;;;;;;3.79;76.34;101084.72;7395229;19;20043;-67
2022/01/28 02:18:31;;;;;;;9.30;1.85;;;;;;;3.72;76.48;101135.66;7394903;19;20015;-68
2022/01/28 02:21:07;;;;;;;11.02;2.33;;;;;;;3.68;77.17;101101.88;7394373;19;20479;-68
2022/01/28 02:23:36;;;;;;;12.13;2.38;;;;;;;3.65;78.62;101130.38;7396255;19;20034;-67
2022/01/28 02:26:07;;;;;;;15.65;2.15;;;;;;;3.58;77.81;101111.25;7394178;19;20366;-66
2022/01/28 02:28:38;;;;;;;9.70;2.20;;;;;;;3.54;78.13;101120.72;7394555;19;20018;-67
2022/01/28 02:31:07;;;;;;;11.52;1.95;;;;;;;3.50;78.13;101128.44;7394690;19;20015;-67
2022/01/28 02:33:35;;;;;;;11.43;2.13;;;;;;;3.48;78.42;101140.53;7393778;19;20482;-68
2022/01/28 02:36:07;;;;;;;14.00;2.90;;;;;;;3.48;79.29;101130.16;7394314;19;20044;-67
2022/01/28 02:38:36;;;;;;;16.83;3.00;;;;;;;3.42;78.70;101152.56;7393817;19;20499;-68
2022/01/28 02:41:06;;;;;;;12.50;1.75;;;;;;;3.42;80.39;101129.22;7395787;19;20030;-68
2022/01/28 02:43:39;;;;;;;12.13;1.73;;;;;;;3.42;79.41;101143.91;7394002;19;20032;-67
2022/01/28 02:46:11;;;;;;;11.27;2.53;;;;;;;3.38;79.39;101137.78;7396113;19;20018;-68
2022/01/28 02:48:50;;;;;;;11.90;1.77;;;;;;;3.39;80.35;101139.53;7393990;19;20074;-68
2022/01/28 02:51:22;;;;;;;14.13;2.50;;;;;;;3.37;79.13;101146.41;7395814;19;20379;-67
2022/01/28 02:53:53;;;;;;;13.95;2.70;;;;;;;3.37;79.62;101142.97;7396213;19;20018;-67
2022/01/28 02:56:32;;;;;;;11.48;2.22;;;;;;;3.38;78.60;101129.16;7395865;19;20019;-67
2022/01/28 02:59:00;;;;;;;12.00;2.08;;;;;;;3.38;78.69;101150.75;7395620;19;20044;-67
2022/01/28 03:01:28;;;;;;;14.18;2.55;;;;;;;3.39;78.89;101141.28;7399905;19;20019;-67
2022/01/28 03:04:00;;;;;;;12.27;2.20;;;;;;;3.41;78.67;101158.59;7401822;19;20018;-68
2022/01/28 03:06:30;;;;;;;16.52;2.95;;;;;;;3.42;78.33;101149.09;7402985;19;20046;-68
2022/01/28 03:09:02;;;;;;;12.85;2.72;;;;;;;3.43;77.53;101153.44;7403206;19;20018;-68
2022/01/28 03:14:19;;;;;;;13.10;2.85;;;;;;;3.48;78.93;101176.84;7399182;19;20471;-68
2022/01/28 03:17:07;;;;;;;12.25;2.35;;;;;;;3.48;77.18;101156.97;7399543;19;20044;-66
2022/01/28 03:19:46;;;;;;;19.60;3.08;;;;;;;3.49;76.67;101163.91;7401225;19;20026;-67
2022/01/28 03:22:17;;;;;;;18.83;2.60;;;;;;;3.53;77.39;101167.41;7404075;19;20019;-67
2022/01/28 03:24:48;;;;;;;18.67;2.95;;;;;;;3.53;76.39;101165.69;7400896;19;20040;-67
2022/01/28 03:27:18;;;;;;;14.32;3.00;;;;;;;3.56;76.91;101178.72;7402261;19;20397;-67
2022/01/28 03:29:46;;;;;;;18.02;3.08;;;;;;;3.57;75.09;101192.53;7402360;19;20010;-68
2022/01/28 03:32:14;;;;;;;17.45;4.25;;;;;;;3.62;75.79;101174.44;7398681;19;20015;-67
2022/01/28 03:34:42;;;;;;;21.10;2.95;;;;;;;3.63;75.29;101184.84;7402067;19;20022;-67
2022/01/28 03:37:12;;;;;;;17.13;2.50;;;;;;;3.65;75.05;101200.44;7400518;19;20051;-67
2022/01/28 03:39:42;;;;;;;13.20;3.72;;;;;;;3.67;75.13;101202.19;7398574;19;20015;-67
2022/01/28 03:42:11;;;;;;;21.75;2.72;;;;;;;3.70;75.88;101207.44;7402017;19;20010;-67
2022/01/28 03:44:39;;;;;;;15.32;2.28;;;;;;;3.70;75.05;101224.72;7398725;19;20018;-67
2022/01/28 03:47:07;;;;;;;18.48;3.47;;;;;;;3.70;74.26;101229.91;7400599;19;20040;-68
2022/01/28 03:49:35;;;;;;;15.20;3.38;;;;;;;3.72;75.19;101225.63;7401379;19;20031;-67
2022/01/28 03:52:03;;;;;;;10.02;2.22;;;;;;;3.72;74.39;101217.84;7398670;19;20022;-67
2022/01/28 03:54:32;;;;;;;11.32;2.05;;;;;;;3.73;74.37;101229.97;7401219;19;20036;-67
2022/01/28 03:57:04;;;;;;;10.40;2.17;;;;;;;3.71;74.54;101218.69;7398456;19;20015;-68
2022/01/28 03:59:32;;;;;;;15.13;2.63;;;;;;;3.71;74.27;101237.72;7398944;19;20029;-68
2022/01/28 04:02:00;;;;;;;12.85;2.35;;;;;;;3.70;73.99;101248.97;7400871;19;20027;-68
2022/01/28 04:12:52;;;;;;;17.13;2.50;;;;;;;3.67;74.33;101256.69;7395880;19;20014;-67
2022/01/28 04:15:36;;;;;;;11.43;2.00;;;;;;;3.68;74.66;101253.25;7400543;19;20357;-66
2022/01/28 04:18:05;;;;;;;;;;;;;;;3.65;74.53;101244.53;7399493;19;20018;-66
2022/01/28 04:20:33;;;;;;;12.30;2.05;;;;;;;3.64;75.86;101245.38;7397786;19;19935;-68
2022/01/28 04:23:01;;;;;;;12.63;2.20;;;;;;;3.61;75.49;101266.13;7397769;19;20018;-67
2022/01/28 04:25:29;;;;;;;8.70;2.03;;;;;;;3.59;76.56;101286.84;7398036;19;20011;-67
2022/01/28 04:28:00;;;;;;;11.18;2.25;;;;;;;3.53;77.95;101271.19;7398251;19;20018;-67
2022/01/28 04:30:28;;;;;;;13.85;2.30;;;;;;;3.45;77.02;101311.69;7398332;19;20023;-67
2022/01/28 04:32:56;;;;;;;12.38;2.08;;;;;;;3.42;78.70;101302.13;7398011;19;20027;-67
2022/01/28 04:35:24;;;;;;;11.07;2.38;;;;;;;3.37;79.88;101301.19;7399810;19;20019;-68
2022/01/28 04:38:03;;;;;;;16.10;2.00;;;;;;;3.31;80.28;101309.75;7398081;19;20018;-67
2022/01/28 04:40:37;;;;;;;11.35;2.67;;;;;;;3.25;80.79;101305.31;7397495;19;20019;-67
2022/01/28 04:43:15;;;;;;;13.98;2.67;;;;;;;3.18;81.75;101300.00;7397322;19;20018;-67
2022/01/28 04:45:50;;;;;;;11.20;2.33;;;;;;;3.12;81.74;101313.72;7397454;19;20018;-67
2022/01/28 04:48:27;;;;;;;21.98;2.95;;;;;;;3.10;82.76;101333.56;7397072;19;20487;-68
2022/01/28 04:51:09;;;;;;;15.35;3.38;;;;;;;3.04;81.84;101331.72;7397316;19;20027;-68
2022/01/28 04:54:03;;;;;;;22.13;2.97;;;;;;;3.03;82.58;101327.41;7399253;19;20031;-67
2022/01/28 04:56:47;;;;;;;11.50;2.15;;;;;;;3.01;82.39;101310.94;7398828;19;20015;-67
2022/01/28 04:59:34;;;;;;;18.40;4.65;;;;;;;3.00;82.79;101335.13;7399149;19;20022;-68
2022/01/28 05:02:28;;;;;;;16.27;3.20;;;;;;;3.02;82.94;101338.63;7398569;19;20040;-68
2022/01/28 05:05:24;;;;;;;14.57;2.40;;;;;;;2.99;82.75;101333.34;7397318;19;20552;-68
2022/01/28 05:08:24;;;;;;;17.25;2.75;;;;;;;2.98;83.92;101339.38;7397174;19;20022;-67
2022/01/28 05:11:19;;;;;;;19.80;2.88;;;;;;;2.96;84.62;101338.50;7398200;19;20025;-67
2022/01/28 05:27:17;;;;;;;15.25;2.30;;;;;;;2.87;83.88;101390.13;7393803;19;20019;-67
2022/01/28 05:29:45;;;;;;;16.15;3.15;;;;;;;2.87;83.67;101390.13;7395511;19;20509;-67
2022/01/28 05:32:29;;;;;;;17.40;3.88;;;;;;;2.87;83.15;101395.31;7395722;19;20027;-68
2022/01/28 05:34:57;;;;;;;19.35;3.25;;;;;;;2.88;84.11;101397.06;7397571;19;20019;-68
2022/01/28 05:37:25;;;;;;;18.58;3.58;;;;;;;2.88;83.70;101410.03;7395829;19;20075;-67
2022/01/28 05:39:53;;;;;;;22.00;4.03;;;;;;;2.89;83.75;101393.66;7395519;19;20022;-67
2022/01/28 05:42:21;;;;;;;12.25;2.80;;;;;;;2.88;83.50;101400.56;7395231;19;20496;-68
2022/01/28 05:44:49;;;;;;;15.57;2.60;;;;;;;2.88;83.37;101399.66;7396494;19;20032;-68
2022/01/28 05:47:18;;;;;;;17.92;2.80;;;;;;;2.87;82.82;101408.28;7395930;19;20022;-68
2022/01/28 05:49:48;;;;;;;12.88;2.45;;;;;;;2.87;81.99;101403.09;7397102;19;20091;-66
2022/01/28 05:52:16;;;;;;;20.92;3.22;;;;;;;2.89;82.61;101415.28;7395347;19;20022;-66
2022/01/28 05:54:45;;;;;;;12.02;2.60;;;;;;;2.91;82.10;101402.34;7396382;19;20395;-67
2022/01/28 05:57:13;;;;;;;10.68;2.33;;;;;;;2.95;81.28;101422.28;7395679;19;20031;-68
2022/01/28 05:59:41;;;;;;;14.73;2.53;;;;;;;2.97;81.39;101456.91;7395530;19;20039;-66
2022/01/28 06:02:09;;;;;;;16.00;3.25;;;;;;;2.99;80.71;101428.41;7394725;19;20014;-65
2022/01/28 06:04:39;;;;;;;16.83;2.67;;;;;;;3.01;80.17;101463.00;7397108;19;20031;-67
2022/01/28 06:07:09;;;;;;;14.10;2.33;;;;;;;3.04;80.18;101435.44;7395226;19;20033;-67
2022/01/28 06:09:37;;;;;;;11.85;2.75;;;;;;;3.06;80.85;101438.94;7396042;19;20014;-67
2022/01/28 06:12:07;;;;;;;18.92;2.67;;;;;;;3.07;80.13;101451.06;7394422;19;20479;-67
2022/01/28 06:14:35;;;;;;;21.40;3.15;;;;;;;3.09;80.19;101472.69;7395660;19;20032;-67
2022/01/28 06:17:03;;;;;;;20.98;3.78;;;;;;;3.13;80.31;101454.63;7393270;19;20035;-67
2022/01/28 06:19:31;;;;;;;14.27;2.90;;;;;;;3.15;80.51;101458.13;7393547;19;20370;-67
2022/01/28 06:21:59;;;;;;;15.68;3.38;;;;;;;3.18;80.51;101468.56;7395595;19;20045;-68
2022/01/28 06:24:30;;;;;;;24.40;2.95;;;;;;;3.15;80.12;101458.13;7392075;19;20425;-67
2022/01/28 06:26:59;;;;;;;14.00;2.38;;;;;;;3.18;79.47;101484.13;7394294;19;20018;-68
2022/01/28 06:29:27;;;;;;;16.75;3.25;;;;;;;3.20;80.37;101475.53;7395634;19;20252;-68
2022/01/28 06:31:55;;;;;;;17.75;4.07;;;;;;;3.21;79.08;101463.41;7395035;19;20031;-68
2022/01/28 06:34:23;;;;;;;18.30;3.08;;;;;;;3.21;78.81;101494.53;7393191;19;20010;-67
2022/01/28 06:36:51;;;;;;;14.88;3.40;;;;;;;3.22;78.47;101479.03;7393491;19;20035;-68
2022/01/28 06:39:20;;;;;;;16.83;2.67;;;;;;;3.26;79.38;101505.88;7395490;19;20028;-67
2022/01/28 06:41:50;;;;;;;14.90;3.22;;;;;;;3.25;77.90;101511.94;7393804;19;20039;-67
2022/01/28 06:44:18;;;;;;;18.67;3.22;;;;;;;3.28;79.14;101509.38;7395425;19;20031;-67
2022/01/28 06:46:46;;;;;;;12.82;3.55;;;;;;;3.29;78.17;101544.84;7394632;19;20370;-68
2022/01/28 06:49:15;;;;;;;21.95;3.70;;;;;;;3.27;77.90;101533.56;7395249;19;20035;-68
2022/01/28 06:51:43;;;;;;;19.10;3.22;;;;;;;3.24;77.90;101528.31;7395210;19;20022;-68
2022/01/28 06:54:11;;;;;;;15.00;3.00;;;;;;;3.31;78.94;101529.31;7394887;19;20496;-68
2022/01/28 06:56:39;;;;;;;19.05;3.00;;;;;;;3.29;78.28;101547.44;7393668;19;20019;-67
2022/01/28 06:59:11;;;;;;;15.27;3.20;;;;;;;3.28;78.85;101545.69;7394745;19;20353;-68
2022/01/28 07:01:39;;;;;;;16.63;3.70;;;;;;;3.30;78.84;101557.00;7396398;19;20031;-67
2022/01/28 07:04:07;;;;;;;18.67;2.55;;;;;;;3.30;79.15;101558.69;7394060;19;20014;-68
2022/01/28 07:06:35;;;;;;;19.10;3.30;;;;;;;3.28;78.85;101553.47;7392430;19;20026;-66
2022/01/28 07:09:03;;;;;;;14.15;2.80;;;;;;;3.28;79.47;101576.81;7394703;19;20378;-67
2022/01/28 07:11:31;;;;;;;18.52;3.22;;;;;;;3.26;80.01;101574.19;7394651;19;20027;-67
2022/01/28 07:13:59;;;;;;;19.17;3.58;;;;;;;3.28;80.18;101563.00;7394517;19;20374;-67
2022/01/28 07:16:31;;;;;;;16.10;2.97;;;;;;;3.25;79.76;101584.56;7392365;19;20022;-68
2022/01/28 07:18:59;;;;;;;16.95;2.90;;;;;;;3.21;80.02;101582.72;7395582;19;20011;-68
2022/01/28 07:21:27;;;;;;;19.67;3.30;;;;;;;3.19;79.82;101595.66;7395134;19;20043;-68
2022/01/28 07:23:56;;;;;;;19.17;3.08;;;;;;;3.21;80.05;101593.09;7395608;19;20028;-67
2022/01/28 07:26:24;;;;;;;25.00;3.67;;;;;;;3.22;80.41;101595.72;7392368;19;20031;-67
2022/01/28 07:28:59;;;;;;;23.50;4.32;;;;;;;3.21;80.45;101616.41;7392526;19;20027;-67
2022/01/28 07:31:27;;;;;;;18.98;4.00;;;;;;;3.18;80.01;101608.59;7394261;19;20197;-67
2022/01/28 07:34:04;;;;;;;16.52;3.55;;;;;;;3.19;80.15;101633.69;7390768;19;20010;-67
2022/01/28 07:36:32;;;;;;;22.10;4.88;;;;;;;3.20;81.52;101622.47;7391533;19;20015;-67
2022/01/28 07:39:00;;;;;;;28.33;7.00;;;;;;;3.23;81.20;101627.72;7393300;19;20538;-67
2022/01/28 07:41:29;;;;;;;28.52;6.85;;;;;;;3.20;80.48;101620.75;7393605;19;20019;-67
2022/01/28 07:43:57;;;;;;;28.17;5.95;;;;;;;3.20;79.85;101636.31;7393660;19;20498;-67
2022/01/28 07:46:25;;;;;;;19.85;4.22;;;;;;;3.19;79.31;101647.50;7393142;19;20050;-67
2022/01/28 07:48:53;;;;;;;18.20;4.10;;;;;;;3.25;80.47;101652.84;7397837;19;20028;-67
2022/01/28 07:51:24;;;;;;;21.15;3.88;;;;;;;3.26;79.38;101671.88;7397848;19;20378;-67
2022/01/28 07:53:53;;;;;;;16.85;3.88;;;;;;;3.28;78.90;101661.56;7400505;19;20500;-67
2022/01/28 07:56:22;;;;;;;21.48;4.53;;;;;;;3.28;78.66;101685.75;7400634;19;20014;-67
2022/01/28 07:58:50;;;;;;;19.88;4.07;;;;;;;3.30;79.51;101676.31;7398022;19;20014;-67
2022/01/28 08:01:18;;;;;;;20.77;3.70;;;;;;;3.33;79.14;101691.94;7400351;19;20431;-67
2022/01/28 08:03:46;;;;;;;25.58;4.95;;;;;;;3.35;78.78;101676.38;7400584;19;20023;-68
2022/01/28 08:06:14;;;;;;;15.35;3.60;;;;;;;3.37;78.77;101683.38;7398967;19;20026;-69
2022/01/28 08:08:45;;;;;;;19.58;3.15;;;;;;;3.40;79.14;101699.03;7397956;19;20022;-68
2022/01/28 08:11:13;;;;;;;19.58;3.42;;;;;;;3.41;76.87;101698.19;7401014;19;20028;-68
2022/01/28 08:13:42;;;;;;;17.92;3.83;;;;;;;3.41;76.13;101685.22;7397175;19;20424;-67
2022/01/28 08:16:10;;;;;;;19.75;4.47;;;;;;;3.48;77.47;101699.19;7400279;19;20026;-67
2022/01/28 08:18:38;;;;;;;21.38;5.00;;;;;;;3.49;75.57;101708.72;7397663;19;20031;-66
2022/01/28 08:21:06;;;;;;;19.75;4.45;;;;;;;3.53;76.83;101715.75;7397015;19;20511;-68
2022/01/28 08:23:35;;;;;;;23.13;4.72;;;;;;;3.56;74.33;101704.56;7400682;19;20070;-67
2022/01/28 08:26:07;;;;;;;18.30;3.88;;;;;;;3.57;73.25;101733.13;7398289;19;20025;-67
2022/01/28 08:28:35;;;;;;;16.95;3.13;;;;;;;3.62;72.61;101737.56;7397580;19;20037;-69
2022/01/28 08:31:03;;;;;;;16.85;3.05;;;;;;;3.65;73.84;101730.72;7400242;19;20438;-67
2022/01/28 08:33:38;;;;;;;21.20;3.67;;;;;;;3.69;75.25;101747.22;7396070;19;20023;-67
2022/01/28 08:36:12;;;;;;;23.13;4.15;;;;;;;3.70;72.63;101736.91;7399538;19;20034;-67
2022/01/28 08:38:44;;;;;;;15.57;3.10;;;;;;;3.70;73.01;101755.06;7396910;19;20022;-68
2022/01/28 08:41:15;;;;;;;16.73;3.45;;;;;;;3.72;70.64;101757.69;7399533;19;20019;-68
2022/01/28 08:43:44;;;;;;;18.73;3.55;;;;;;;3.71;69.76;101771.50;7399974;19;20015;-68
2022/01/28 08:46:12;;;;;;;14.70;3.25;;;;;;;3.73;70.62;101764.63;7398023;19;20043;-67
2022/01/28 08:48:41;;;;;;;20.05;3.60;;;;;;;3.71;69.64;101776.69;7397146;19;20031;-68
2022/01/28 08:51:09;;;;;;;15.20;3.30;;;;;;;3.74;70.20;101767.25;7399225;19;20023;-68
2022/01/28 08:53:39;;;;;;;20.92;3.72;;;;;;;3.73;68.87;101736.09;7398762;19;20520;-67
2022/01/28 08:56:08;;;;;;;19.60;4.10;;;;;;;3.73;68.46;101775.03;7399326;19;20035;-68
2022/01/28 08:58:39;;;;;;;20.08;3.67;;;;;;;3.73;68.24;101775.88;7394215;19;20022;-67
2022/01/28 09:01:07;;;;;;;24.42;4.88;;;;;;;3.76;70.55;101782.88;7396941;19;20116;-67
2022/01/28 09:03:35;;;;;;;19.10;3.60;;;;;;;3.78;69.71;101803.66;7398833;19;20365;-68
2022/01/28 09:06:04;;;;;;;26.67;4.55;;;;;;;3.78;69.12;101788.97;7396708;19;20345;-68
2022/01/28 09:08:32;;;;;;;18.75;3.75;;;;;;;3.78;68.13;101830.53;7396665;19;20031;-67
2022/01/28 09:11:19;;;;;;;18.48;3.90;;;;;;;3.80;68.99;101797.66;7395950;19;20014;-68
2022/01/28 09:13:49;;;;;;;20.42;3.50;;;;;;;3.81;68.61;101801.16;7396363;19;20483;-68
2022/01/28 09:16:20;;;;;;;16.10;3.72;;;;;;;3.82;69.63;101797.72;7398707;19;20018;-68
2022/01/28 09:18:48;;;;;;;23.27;3.72;;;;;;;3.82;68.74;101841.84;7395976;19;20025;-67
2022/01/28 09:21:17;;;;;;;21.83;4.40;;;;;;;3.81;68.51;101812.41;7397936;19;20019;-69
2022/01/28 09:23:46;;;;;;;19.45;3.40;;;;;;;3.79;67.25;101832.28;7395879;19;20027;-68
2022/01/28 09:26:15;;;;;;;24.50;4.80;;;;;;;3.78;69.20;101825.31;7395838;19;20022;-67
2022/01/28 09:28:43;;;;;;;20.25;3.80;;;;;;;3.78;68.09;101827.03;7395562;19;20421;-68
2022/01/28 09:31:14;;;;;;;20.48;3.13;;;;;;;3.77;67.65;101830.47;7397444;19;20015;-67
2022/01/28 09:33:43;;;;;;;22.67;3.63;;;;;;;3.79;68.91;101831.38;7395037;19;20006;-69
2022/01/28 09:36:11;;;;;;;14.52;3.15;;;;;;;3.78;67.26;101859.06;7395622;19;20018;-67
2022/01/28 09:38:39;;;;;;;21.08;3.47;;;;;;;3.80;67.90;101851.31;7395727;19;20026;-68
2022/01/28 09:41:10;;;;;;;21.35;3.95;;;;;;;3.81;67.91;101822.78;7396938;19;20014;-67
2022/01/28 09:43:38;;;;;;;19.60;3.50;;;;;;;3.83;69.39;101844.47;7397032;19;20026;-68
2022/01/28 09:46:07;;;;;;;21.13;3.45;;;;;;;3.80;67.17;101852.19;7396409;19;20027;-67
2022/01/28 09:48:38;;;;;;;20.58;4.28;;;;;;;3.84;69.04;101882.59;7395175;19;20035;-68
2022/01/28 09:51:06;;;;;;;21.17;3.33;;;;;;;3.86;68.23;101870.50;7395729;19;20027;-68
2022/01/28 09:53:35;;;;;;;18.25;3.38;;;;;;;3.89;68.01;101875.78;7394883;19;20036;-70
2022/01/28 09:56:04;;;;;;;16.77;2.78;;;;;;;3.90;67.09;101871.47;7396940;19;20018;-69
2022/01/28 09:58:32;;;;;;;16.55;3.85;;;;;;;3.92;66.97;101894.03;7395122;19;20018;-71
2022/01/28 10:01:00;;;;;;;22.60;3.88;;;;;;;3.96;69.13;101897.56;7394429;19;20069;-67
2022/01/28 10:03:29;;;;;;;21.50;3.45;;;;;;;3.97;67.12;101888.94;7395370;19;20038;-68
2022/01/28 10:06:00;;;;;;;19.27;3.78;;;;;;;3.99;67.71;101901.97;7395213;19;20360;-68
2022/01/28 10:08:29;;;;;;;24.23;3.63;;;;;;;3.98;65.95;101916.69;7394641;19;20217;-67
2022/01/28 10:11:02;;;;;;;15.73;3.53;;;;;;;3.96;65.35;101928.72;7396361;19;20471;-68
2022/01/28 10:13:39;;;;;;;20.38;3.72;;;;;;;3.97;67.97;101920.13;7396405;19;20022;-69
2022/01/28 10:16:13;;;;;;;19.55;4.22;;;;;;;4.04;68.58;101923.72;7393439;19;20371;-62
2022/01/28 10:18:45;;;;;;;16.30;3.50;;;;;;;4.06;66.35;101943.69;7393305;19;20014;-65
2022/01/28 10:21:21;;;;;;;18.85;3.35;;;;;;;4.09;66.76;101924.72;7393937;19;20028;-64
2022/01/28 10:24:05;;;;;;;14.57;2.63;;;;;;;4.12;66.06;101937.78;7395054;19;20031;-64
2022/01/28 10:26:36;;;;;;;15.55;3.70;;;;;;;4.14;65.94;101930.03;7394105;19;20033;-64
2022/01/28 10:29:06;;;;;;;19.23;3.13;;;;;;;4.15;66.26;101960.38;7394543;19;20077;-65
2022/01/28 10:32:00;;;;;;;15.15;3.75;;;;;;;4.16;66.76;101947.41;7394473;19;20018;-68
2022/01/28 10:34:33;;;;;;;21.15;3.58;;;;;;;4.17;65.77;101948.28;7393533;19;20023;-70
2022/01/28 10:37:18;;;;;;;18.45;3.45;;;;;;;4.18;65.08;101947.44;7395967;19;20031;-70
2022/01/28 10:39:49;;;;;;;24.35;4.03;;;;;;;4.16;65.31;101983.78;7395697;19;20487;-70
2022/01/28 10:42:20;;;;;;;17.67;3.28;;;;;;;4.14;63.64;101963.78;7395966;19;20079;-70
2022/01/28 10:44:59;;;;;;;25.45;3.92;;;;;;;4.13;63.97;101960.28;7393941;19;20044;-70
2022/01/28 10:47:35;;;;;;;23.75;3.47;;;;;;;4.16;64.76;101947.41;7394011;19;20022;-70
2022/01/28 10:50:17;;;;;;;16.80;3.25;;;;;;;4.21;64.94;101945.78;7396044;19;20493;-67
2022/01/28 10:52:48;;;;;;;15.90;2.78;;;;;;;4.23;64.97;101940.63;7395061;19;20023;-67
2022/01/28 10:55:21;;;;;;;17.50;3.00;;;;;;;4.23;64.62;101948.41;7395537;19;20036;-67
2022/01/28 10:58:00;;;;;;;21.13;2.83;;;;;;;4.25;64.38;101949.34;7393148;19;20035;-67
2022/01/28 11:00:31;;;;;;;23.58;3.75;;;;;;;4.25;64.13;101946.75;7394431;19;20390;-69
2022/01/28 11:03:01;;;;;;;24.17;4.28;;;;;;;4.28;65.62;101946.81;7394716;19;20018;-67
2022/01/28 11:05:31;;;;;;;17.88;4.22;;;;;;;4.30;65.47;101950.31;7392474;19;20018;-67
2022/01/28 11:08:03;;;;;;;16.60;2.90;;;;;;;4.35;66.19;101945.25;7392242;19;20018;-69
2022/01/28 11:10:33;;;;;;;17.13;3.60;;;;;;;4.36;64.53;101937.47;7391616;19;20019;-66
2022/01/28 11:13:02;;;;;;;17.92;2.92;;;;;;;4.40;65.43;101938.44;7392451;19;20014;-66
2022/01/28 11:15:32;;;;;;;14.82;2.75;;;;;;;4.42;65.21;101934.13;7394667;19;20026;-66
2022/01/28 11:18:02;;;;;;;15.05;2.38;;;;;;;4.46;66.78;101941.19;7393974;19;20018;-67
2022/01/28 11:20:34;;;;;;;17.80;3.13;;;;;;;4.48;64.07;101955.06;7392025;19;20037;-66
2022/01/28 11:23:13;;;;;;;23.00;4.10;;;;;;;4.49;63.36;101950.75;7397479;19;20032;-65
2022/01/28 11:26:08;;;;;;;14.13;2.83;;;;;;;4.52;63.29;101976.81;7401740;19;20035;-66
2022/01/28 11:28:45;;;;;;;22.17;2.83;;;;;;;4.56;63.85;101947.44;7398414;19;20015;-66
2022/01/28 11:31:15;;;;;;;19.30;2.85;;;;;;;4.58;64.50;101956.16;7397977;19;20355;-66
2022/01/28 11:33:47;;;;;;;21.33;3.08;;;;;;;4.60;63.86;101967.47;7399888;19;20041;-66
2022/01/28 11:36:16;;;;;;;18.67;2.30;;;;;;;4.64;63.01;101960.59;7401099;19;20044;-67
2022/01/28 11:38:48;;;;;;;18.92;3.15;;;;;;;4.69;65.19;101967.69;7397786;19;20022;-67
2022/01/28 11:41:18;;;;;;;20.52;4.88;;;;;;;4.70;63.76;101972.03;7401693;19;20039;-67
2022/01/28 11:43:49;;;;;;;14.35;3.13;;;;;;;4.75;62.70;101974.72;7401275;19;20030;-66
2022/01/28 11:46:21;;;;;;;15.43;3.28;;;;;;;4.79;64.11;101975.66;7400638;19;20018;-67
2022/01/28 11:49:25;;;;;;;14.73;3.15;;;;;;;4.82;62.27;101991.34;7398262;19;20022;-67
2022/01/28 11:51:53;;;;;;;18.80;3.28;;;;;;;4.82;62.17;102013.03;7401553;19;20028;-67
2022/01/28 11:54:38;;;;;;;15.95;2.83;;;;;;;4.84;62.45;102000.94;7400923;19;20022;-72
2022/01/28 11:57:21;;;;;;;18.40;2.85;;;;;;;4.86;62.15;102008.78;7400711;19;20019;-65
2022/01/28 11:59:50;;;;;;;20.38;3.47;;;;;;;4.89;64.70;101993.22;7398156;19;20446;-68
2022/01/28 12:02:21;;;;;;;20.45;2.92;;;;;;;4.90;62.84;101992.38;7397414;19;20501;-67
2022/01/28 12:04:49;;;;;;;15.48;2.88;;;;;;;4.95;62.96;102000.28;7400110;19;20376;-68
2022/01/28 12:07:21;;;;;;;17.42;3.22;;;;;;;4.93;62.21;101997.66;7399195;19;20014;-68
2022/01/28 12:09:54;;;;;;;11.18;2.42;;;;;;;4.95;62.74;102006.38;7400434;19;20542;-69
2022/01/28 12:12:57;;;;;;;22.70;3.50;;;;;;;4.94;61.70;102019.34;7396861;19;20390;-69
2022/01/28 12:15:27;;;;;;;17.65;4.60;;;;;;;4.98;64.36;102010.75;7399564;19;20073;-67
2022/01/28 12:18:07;;;;;;;18.05;3.17;;;;;;;4.99;62.16;102016.00;7397476;19;20363;-66
2022/01/28 12:20:46;;;;;;;20.58;3.40;;;;;;;5.05;62.65;102025.66;7399945;19;20022;-67
2022/01/28 12:23:29;;;;;;;20.30;3.20;;;;;;;5.14;62.94;102035.38;7397200;19;20034;-65
2022/01/28 12:26:02;;;;;;;16.88;3.88;;;;;;;5.22;63.78;102036.44;7399133;19;20022;-67
2022/01/28 12:28:49;;;;;;;19.63;3.45;;;;;;;5.29;61.52;102040.91;7396797;19;20029;-66
2022/01/28 12:31:24;;;;;;;17.85;3.05;;;;;;;5.33;61.38;102047.97;7398682;19;20040;-68
2022/01/28 12:33:53;;;;;;;19.90;3.22;;;;;;;5.36;60.94;102058.41;7394230;19;20027;-67
2022/01/28 12:36:24;;;;;;;14.88;3.08;;;;;;;5.36;63.98;102040.19;7398746;19;20018;-71
2022/01/28 12:39:09;;;;;;;20.75;3.63;;;;;;;5.36;61.21;102041.94;7399103;19;20032;-67
2022/01/28 12:41:51;;;;;;;19.77;3.03;;;;;;;5.35;61.75;102046.25;7396780;19;20037;-67